createdAt,value
2018-12-03T00:00:06.782Z,9.49
2018-12-03T00:01:06.824Z,9.49
2018-12-03T00:02:06.870Z,9.60
2018-12-03T00:03:06.918Z,9.60
2018-12-03T00:04:06.978Z,9.56
2018-12-03T00:05:07.020Z,9.60
2018-12-03T00:06:07.073Z,9.52
2018-12-03T00:07:07.093Z,9.48
2018-12-03T00:08:07.136Z,9.49
2018-12-03T00:09:07.192Z,9.60
2018-12-03T00:10:07.229Z,9.60
2018-12-03T00:11:07.353Z,9.60
2018-12-03T00:12:07.317Z,9.58
2018-12-03T00:13:07.371Z,9.58
2018-12-03T00:14:07.422Z,9.53
2018-12-03T00:15:07.455Z,9.58
2018-12-03T00:16:07.523Z,9.52
2018-12-03T00:17:07.567Z,9.50
2018-12-03T00:18:07.754Z,9.48
2018-12-03T00:19:07.645Z,9.43
2018-12-03T00:20:07.677Z,9.40
2018-12-03T00:21:07.723Z,9.35
2018-12-03T00:22:07.792Z,9.35
2018-12-03T00:23:07.837Z,9.34
2018-12-03T00:24:07.861Z,9.30
2018-12-03T00:25:07.913Z,9.25
2018-12-03T00:26:07.947Z,9.21
2018-12-03T00:27:08.011Z,9.16
2018-12-03T00:28:08.043Z,9.27
2018-12-03T00:29:08.090Z,9.28
2018-12-03T00:30:08.132Z,9.31
2018-12-03T00:31:08.201Z,9.32
2018-12-03T00:32:08.218Z,9.34
2018-12-03T00:33:08.261Z,9.35
2018-12-03T00:34:08.312Z,9.32
2018-12-03T00:35:08.359Z,9.39
2018-12-03T00:36:08.424Z,9.38
2018-12-03T00:37:08.441Z,9.42
2018-12-03T00:38:08.499Z,9.46
2018-12-03T00:39:08.552Z,9.48
2018-12-03T00:40:08.575Z,9.52
2018-12-03T00:41:08.640Z,9.48
2018-12-03T00:42:08.669Z,9.48
2018-12-03T00:43:08.716Z,9.50
2018-12-03T00:44:08.782Z,9.49
2018-12-03T00:45:08.803Z,9.50
2018-12-03T00:46:08.846Z,9.57
2018-12-03T00:47:08.894Z,9.58
2018-12-03T00:48:08.946Z,9.49
2018-12-03T00:49:09.008Z,9.48
2018-12-03T00:50:09.051Z,9.58
2018-12-03T00:51:09.083Z,9.58
2018-12-03T00:52:09.117Z,9.58
2018-12-03T00:53:09.165Z,9.60
2018-12-03T00:54:09.226Z,9.58
2018-12-03T00:55:09.261Z,9.58
2018-12-03T00:56:09.306Z,9.66
2018-12-03T00:57:09.427Z,9.61
2018-12-03T00:58:09.406Z,9.58
2018-12-03T00:59:09.435Z,9.53
2018-12-03T01:00:09.481Z,9.57
2018-12-03T01:01:09.523Z,9.63
2018-12-03T01:02:09.567Z,9.52
2018-12-03T01:03:09.632Z,9.56
2018-12-03T01:04:09.737Z,9.46
2018-12-03T01:05:09.721Z,9.56
2018-12-03T01:06:09.745Z,9.58
2018-12-03T01:07:09.793Z,9.52
2018-12-03T01:08:09.840Z,9.52
2018-12-03T01:09:09.895Z,9.50
2018-12-03T01:10:09.947Z,9.57
2018-12-03T01:11:10.012Z,9.56
2018-12-03T01:12:10.021Z,9.58
2018-12-03T01:13:10.064Z,9.53
2018-12-03T01:14:10.118Z,9.52
2018-12-03T01:15:10.195Z,9.64
2018-12-03T01:16:10.195Z,9.60
2018-12-03T01:17:10.246Z,9.56
2018-12-03T01:18:10.318Z,9.61
2018-12-03T01:19:10.355Z,9.60
2018-12-03T01:20:10.396Z,9.63
2018-12-03T01:21:10.427Z,9.68
2018-12-03T01:22:10.471Z,9.70
2018-12-03T01:23:10.522Z,9.75
2018-12-03T01:24:10.564Z,9.63
2018-12-03T01:25:10.623Z,9.70
2018-12-03T01:26:10.649Z,9.61
2018-12-03T01:27:10.724Z,9.57
2018-12-03T01:28:10.765Z,9.58
2018-12-03T01:29:10.782Z,9.56
2018-12-03T01:30:10.835Z,9.56
2018-12-03T01:31:10.874Z,9.46
2018-12-03T01:32:10.932Z,9.49
2018-12-03T01:33:10.991Z,9.49
2018-12-03T01:34:11.016Z,9.46
2018-12-03T01:35:11.057Z,9.49
2018-12-03T01:36:11.102Z,9.50
2018-12-03T01:37:11.146Z,9.39
2018-12-03T01:38:11.215Z,9.40
2018-12-03T01:39:11.240Z,9.43
2018-12-03T01:40:11.287Z,9.35
2018-12-03T01:41:11.345Z,9.39
2018-12-03T01:42:11.375Z,9.39
2018-12-03T01:43:11.443Z,9.34
2018-12-03T01:44:11.464Z,9.38
2018-12-03T01:45:11.517Z,9.31
2018-12-03T01:46:11.553Z,9.38
2018-12-03T01:47:11.602Z,9.38
2018-12-03T01:48:11.742Z,9.35
2018-12-03T01:49:11.694Z,9.38
2018-12-03T01:50:11.756Z,9.31
2018-12-03T01:51:11.781Z,9.34
2018-12-03T01:52:11.828Z,9.39
2018-12-03T01:53:11.871Z,9.30
2018-12-03T01:54:11.923Z,9.31
2018-12-03T01:55:11.984Z,9.31
2018-12-03T01:56:12.026Z,9.32
2018-12-03T01:57:12.053Z,9.40
2018-12-03T01:58:12.104Z,9.42
2018-12-03T01:59:12.143Z,9.42
2018-12-03T02:00:12.210Z,9.46
2018-12-03T02:01:12.235Z,9.42
2018-12-03T02:02:12.276Z,9.52
2018-12-03T02:03:12.321Z,9.45
2018-12-03T02:04:12.378Z,9.48
2018-12-03T02:05:12.430Z,9.48
2018-12-03T02:06:12.479Z,9.50
2018-12-03T02:07:12.566Z,9.45
2018-12-03T02:08:12.550Z,9.48
2018-12-03T02:09:12.592Z,9.53
2018-12-03T02:10:12.645Z,9.49
2018-12-03T02:11:12.710Z,9.46
2018-12-03T02:12:12.728Z,9.49
2018-12-03T02:13:12.803Z,9.53
2018-12-03T02:14:12.820Z,9.50
2018-12-03T02:15:12.878Z,9.49
2018-12-03T02:16:12.909Z,9.56
2018-12-03T02:17:12.959Z,9.56
2018-12-03T02:18:13.130Z,9.57
2018-12-03T02:19:13.045Z,9.50
2018-12-03T02:20:13.913Z,9.50
2018-12-03T02:21:13.158Z,9.48
2018-12-03T02:22:13.180Z,9.48
2018-12-03T02:23:13.226Z,9.45
2018-12-03T02:24:13.270Z,9.49
2018-12-03T02:25:13.314Z,9.49
2018-12-03T02:26:13.387Z,9.46
2018-12-03T02:27:13.406Z,9.49
2018-12-03T02:28:13.454Z,9.48
2018-12-03T02:29:13.499Z,9.46
2018-12-03T02:30:13.545Z,9.45
2018-12-03T02:31:13.618Z,9.46
2018-12-03T02:32:13.637Z,9.48
2018-12-03T02:33:13.682Z,9.50
2018-12-03T02:34:13.725Z,9.43
2018-12-03T02:35:13.770Z,9.46
2018-12-03T02:36:13.841Z,9.48
2018-12-03T02:37:13.869Z,9.43
2018-12-03T02:38:13.926Z,9.48
2018-12-03T02:39:13.960Z,9.48
2018-12-03T02:40:14.000Z,9.49
2018-12-03T02:41:14.040Z,9.52
2018-12-03T02:42:14.109Z,9.52
2018-12-03T02:43:14.132Z,9.43
2018-12-03T02:44:14.176Z,9.42
2018-12-03T02:45:14.250Z,9.52
2018-12-03T02:46:14.272Z,9.48
2018-12-03T02:47:14.311Z,9.48
2018-12-03T02:48:14.360Z,9.48
2018-12-03T02:49:14.409Z,9.57
2018-12-03T02:50:14.472Z,9.50
2018-12-03T02:51:14.494Z,9.58
2018-12-03T02:52:14.538Z,9.58
2018-12-03T02:53:14.582Z,9.52
2018-12-03T02:54:14.647Z,9.53
2018-12-03T02:55:14.678Z,9.56
2018-12-03T02:56:14.719Z,9.64
2018-12-03T02:57:14.787Z,9.58
2018-12-03T02:58:14.813Z,9.61
2018-12-03T02:59:14.876Z,9.60
2018-12-03T03:00:14.905Z,9.58
2018-12-03T03:01:14.949Z,9.63
2018-12-03T03:02:14.992Z,9.64
2018-12-03T03:03:15.064Z,9.63
2018-12-03T03:04:15.156Z,9.63
2018-12-03T03:05:15.229Z,9.58
2018-12-03T03:06:15.193Z,9.53
2018-12-03T03:07:15.240Z,9.67
2018-12-03T03:08:15.262Z,9.66
2018-12-03T03:09:15.312Z,9.63
2018-12-03T03:10:15.358Z,9.67
2018-12-03T03:11:15.397Z,9.70
2018-12-03T03:12:15.464Z,9.68
2018-12-03T03:13:15.489Z,9.68
2018-12-03T03:14:15.537Z,9.67
2018-12-03T03:15:15.579Z,9.60
2018-12-03T03:16:15.649Z,9.63
2018-12-03T03:17:15.670Z,9.58
2018-12-03T03:18:15.737Z,9.60
2018-12-03T03:19:15.779Z,9.60
2018-12-03T03:20:15.815Z,9.61
2018-12-03T03:21:15.856Z,9.61
2018-12-03T03:22:15.927Z,9.61
2018-12-03T03:23:15.946Z,9.73
2018-12-03T03:24:15.990Z,9.68
2018-12-03T03:25:16.039Z,9.78
2018-12-03T03:26:16.082Z,9.75
2018-12-03T03:27:16.154Z,9.79
2018-12-03T03:28:16.175Z,9.78
2018-12-03T03:29:16.224Z,9.75
2018-12-03T03:30:16.266Z,9.76
2018-12-03T03:31:16.309Z,9.76
2018-12-03T03:32:16.382Z,9.81
2018-12-03T03:33:16.409Z,9.71
2018-12-03T03:34:16.494Z,9.71
2018-12-03T03:35:16.495Z,9.67
2018-12-03T03:36:16.541Z,9.66
2018-12-03T03:37:16.600Z,9.71
2018-12-03T03:38:16.644Z,9.66
2018-12-03T03:39:16.698Z,9.73
2018-12-03T03:40:16.714Z,9.75
2018-12-03T03:41:16.824Z,9.67
2018-12-03T03:42:16.808Z,9.71
2018-12-03T03:43:16.852Z,9.73
2018-12-03T03:44:16.920Z,9.71
2018-12-03T03:45:16.969Z,9.68
2018-12-03T03:46:16.988Z,9.67
2018-12-03T03:47:17.036Z,9.71
2018-12-03T03:48:17.150Z,9.71
2018-12-03T03:49:17.124Z,9.73
2018-12-03T03:50:17.201Z,9.71
2018-12-03T03:51:17.220Z,9.67
2018-12-03T03:52:17.261Z,9.68
2018-12-03T03:53:17.313Z,9.79
2018-12-03T03:54:17.377Z,9.68
2018-12-03T03:55:17.427Z,9.71
2018-12-03T03:56:17.465Z,9.73
2018-12-03T03:57:17.491Z,9.79
2018-12-03T03:58:17.554Z,9.71
2018-12-03T03:59:17.602Z,9.73
2018-12-03T04:00:17.623Z,9.73
2018-12-03T04:01:17.670Z,9.78
2018-12-03T04:02:17.716Z,9.78
2018-12-03T04:03:17.801Z,9.82
2018-12-03T04:04:17.808Z,9.71
2018-12-03T04:05:17.874Z,9.78
2018-12-03T04:06:17.898Z,9.76
2018-12-03T04:07:17.944Z,9.78
2018-12-03T04:08:17.986Z,9.76
2018-12-03T04:09:18.053Z,9.73
2018-12-03T04:10:18.085Z,9.78
2018-12-03T04:11:18.151Z,9.79
2018-12-03T04:12:18.185Z,9.82
2018-12-03T04:13:18.231Z,9.82
2018-12-03T04:14:18.297Z,9.89
2018-12-03T04:15:18.311Z,9.89
2018-12-03T04:16:18.379Z,9.88
2018-12-03T04:17:18.406Z,9.91
2018-12-03T04:18:18.567Z,9.82
2018-12-03T04:19:18.491Z,9.89
2018-12-03T04:20:18.539Z,9.96
2018-12-03T04:21:18.610Z,9.91
2018-12-03T04:22:18.632Z,9.89
2018-12-03T04:23:18.673Z,9.91
2018-12-03T04:24:18.720Z,9.97
2018-12-03T04:25:18.789Z,9.88
2018-12-03T04:26:18.838Z,9.88
2018-12-03T04:27:18.860Z,9.83
2018-12-03T04:28:18.902Z,9.89
2018-12-03T04:29:18.954Z,9.88
2018-12-03T04:30:19.021Z,9.88
2018-12-03T04:31:19.041Z,9.82
2018-12-03T04:32:19.081Z,9.75
2018-12-03T04:33:19.129Z,9.88
2018-12-03T04:34:19.176Z,9.88
2018-12-03T04:35:19.244Z,9.82
2018-12-03T04:36:19.284Z,9.85
2018-12-03T04:37:20.749Z,9.79
2018-12-03T04:38:19.373Z,9.88
2018-12-03T04:39:19.406Z,9.86
2018-12-03T04:40:19.446Z,9.88
2018-12-03T04:41:19.516Z,9.86
2018-12-03T04:42:19.544Z,9.91
2018-12-03T04:43:19.587Z,9.88
2018-12-03T04:44:19.632Z,9.83
2018-12-03T04:45:19.687Z,9.86
2018-12-03T04:46:19.754Z,9.89
2018-12-03T04:47:19.771Z,9.89
2018-12-03T04:48:19.817Z,9.89
2018-12-03T04:49:19.865Z,9.88
2018-12-03T04:50:19.929Z,9.82
2018-12-03T04:51:19.972Z,9.82
2018-12-03T04:52:19.998Z,9.81
2018-12-03T04:53:20.064Z,9.88
2018-12-03T04:54:20.089Z,9.79
2018-12-03T04:55:20.162Z,9.83
2018-12-03T04:56:20.181Z,9.78
2018-12-03T04:57:20.251Z,9.79
2018-12-03T04:58:20.294Z,9.75
2018-12-03T04:59:20.316Z,9.75
2018-12-03T05:00:20.361Z,9.76
2018-12-03T05:01:20.411Z,9.79
2018-12-03T05:02:20.571Z,9.75
2018-12-03T05:03:20.541Z,9.76
2018-12-03T05:04:20.548Z,9.76
2018-12-03T05:05:20.595Z,9.79
2018-12-03T05:06:20.636Z,9.75
2018-12-03T05:07:20.692Z,9.78
2018-12-03T05:08:20.753Z,9.75
2018-12-03T05:09:20.774Z,9.81
2018-12-03T05:10:20.824Z,9.81
2018-12-03T05:11:20.870Z,9.83
2018-12-03T05:12:20.910Z,9.83
2018-12-03T05:13:20.980Z,9.81
2018-12-03T05:14:21.023Z,9.86
2018-12-03T05:15:21.047Z,9.79
2018-12-03T05:16:21.099Z,9.85
2018-12-03T05:17:21.137Z,9.82
2018-12-03T05:18:21.196Z,9.88
2018-12-03T05:19:21.252Z,9.83
2018-12-03T05:20:21.277Z,9.93
2018-12-03T05:21:21.321Z,9.83
2018-12-03T05:22:21.365Z,9.88
2018-12-03T05:23:21.412Z,10.01
2018-12-03T05:24:21.482Z,10.00
2018-12-03T05:25:21.500Z,10.01
2018-12-03T05:26:21.544Z,9.99
2018-12-03T05:27:21.594Z,10.03
2018-12-03T05:28:21.637Z,9.91
2018-12-03T05:29:21.702Z,10.00
2018-12-03T05:30:21.728Z,10.03
2018-12-03T05:31:21.780Z,10.06
2018-12-03T05:32:21.827Z,10.12
2018-12-03T05:33:21.865Z,10.01
2018-12-03T05:34:21.966Z,10.15
2018-12-03T05:35:21.959Z,10.07
2018-12-03T05:36:21.999Z,10.12
2018-12-03T05:37:22.046Z,10.24
2018-12-03T05:38:22.090Z,10.25
2018-12-03T05:39:22.158Z,10.28
2018-12-03T05:40:22.182Z,10.22
2018-12-03T05:41:22.277Z,10.12
2018-12-03T05:42:22.284Z,10.15
2018-12-03T05:43:22.320Z,10.14
2018-12-03T05:44:22.375Z,10.06
2018-12-03T05:45:22.442Z,10.01
2018-12-03T05:46:22.459Z,10.03
2018-12-03T05:47:22.505Z,10.03
2018-12-03T05:48:22.607Z,10.01
2018-12-03T05:49:22.593Z,10.00
2018-12-03T05:50:22.664Z,9.96
2018-12-03T05:51:22.684Z,9.99
2018-12-03T05:52:22.732Z,9.96
2018-12-03T05:53:22.797Z,9.94
2018-12-03T05:54:22.823Z,9.94
2018-12-03T05:55:22.875Z,9.91
2018-12-03T05:56:22.922Z,9.93
2018-12-03T05:57:22.973Z,9.97
2018-12-03T05:58:23.044Z,9.99
2018-12-03T05:59:23.062Z,9.96
2018-12-03T06:00:23.108Z,9.91
2018-12-03T06:01:23.142Z,9.86
2018-12-03T06:02:23.200Z,9.89
2018-12-03T06:03:23.264Z,9.97
2018-12-03T06:04:23.294Z,9.96
2018-12-03T06:05:23.323Z,9.93
2018-12-03T06:06:23.376Z,9.94
2018-12-03T06:07:23.418Z,10.01
2018-12-03T06:08:23.486Z,9.89
2018-12-03T06:09:23.510Z,9.97
2018-12-03T06:10:23.556Z,9.99
2018-12-03T06:11:23.601Z,10.04
2018-12-03T06:12:23.646Z,9.94
2018-12-03T06:13:23.711Z,10.01
2018-12-03T06:14:23.741Z,9.99
2018-12-03T06:15:23.789Z,10.12
2018-12-03T06:16:23.828Z,9.99
2018-12-03T06:17:23.874Z,10.06
2018-12-03T06:18:23.955Z,10.14
2018-12-03T06:19:23.974Z,9.96
2018-12-03T06:20:24.022Z,10.06
2018-12-03T06:21:24.058Z,9.96
2018-12-03T06:22:24.108Z,10.00
2018-12-03T06:23:24.175Z,9.97
2018-12-03T06:24:24.205Z,9.97
2018-12-03T06:25:24.333Z,10.00
2018-12-03T06:26:24.288Z,10.00
2018-12-03T06:27:24.333Z,9.91
2018-12-03T06:28:24.381Z,10.03
2018-12-03T06:29:24.433Z,9.96
2018-12-03T06:30:24.496Z,10.00
2018-12-03T06:31:24.518Z,9.94
2018-12-03T06:32:24.620Z,9.96
2018-12-03T06:33:24.609Z,9.96
2018-12-03T06:34:24.677Z,9.93
2018-12-03T06:35:24.704Z,10.00
2018-12-03T06:36:24.749Z,9.99
2018-12-03T06:37:24.795Z,9.96
2018-12-03T06:38:24.864Z,9.96
2018-12-03T06:39:24.888Z,10.00
2018-12-03T06:40:24.941Z,9.97
2018-12-03T06:41:25.000Z,9.97
2018-12-03T06:42:25.027Z,9.97
2018-12-03T06:43:25.083Z,9.97
2018-12-03T06:44:25.121Z,9.99
2018-12-03T06:45:25.167Z,10.04
2018-12-03T06:46:25.238Z,10.01
2018-12-03T06:47:25.256Z,9.93
2018-12-03T06:48:25.323Z,9.94
2018-12-03T06:49:25.352Z,10.04
2018-12-03T06:50:25.437Z,9.94
2018-12-03T06:51:25.448Z,10.01
2018-12-03T06:52:25.496Z,10.00
2018-12-03T06:53:25.533Z,9.91
2018-12-03T06:54:25.581Z,10.00
2018-12-03T06:55:25.652Z,9.99
2018-12-03T06:56:25.679Z,10.03
2018-12-03T06:57:25.716Z,9.97
2018-12-03T06:58:25.767Z,9.93
2018-12-03T06:59:25.824Z,10.01
2018-12-03T07:00:25.884Z,10.04
2018-12-03T07:01:25.924Z,10.09
2018-12-03T07:02:25.962Z,10.01
2018-12-03T07:03:25.996Z,9.99
2018-12-03T07:04:26.055Z,9.97
2018-12-03T07:05:26.087Z,10.00
2018-12-03T07:06:26.158Z,9.94
2018-12-03T07:07:26.191Z,10.04
2018-12-03T07:08:26.223Z,9.99
2018-12-03T07:09:26.274Z,9.93
2018-12-03T07:10:26.321Z,9.99
2018-12-03T07:11:26.378Z,9.96
2018-12-03T07:12:26.432Z,9.96
2018-12-03T07:13:26.458Z,9.99
2018-12-03T07:14:26.510Z,9.96
2018-12-03T07:15:26.543Z,10.01
2018-12-03T07:16:26.592Z,9.97
2018-12-03T07:17:26.661Z,9.96
2018-12-03T07:18:26.735Z,10.07
2018-12-03T07:19:26.734Z,9.96
2018-12-03T07:20:26.777Z,10.01
2018-12-03T07:21:26.842Z,9.99
2018-12-03T07:22:26.872Z,10.01
2018-12-03T07:23:26.934Z,9.99
2018-12-03T07:24:26.957Z,9.91
2018-12-03T07:25:27.001Z,9.91
2018-12-03T07:26:27.076Z,10.00
2018-12-03T07:27:27.100Z,9.89
2018-12-03T07:28:27.159Z,9.97
2018-12-03T07:29:27.186Z,10.09
2018-12-03T07:30:27.265Z,9.94
2018-12-03T07:31:27.282Z,10.03
2018-12-03T07:32:27.350Z,10.06
2018-12-03T07:33:27.367Z,10.06
2018-12-03T07:34:27.415Z,10.03
2018-12-03T07:35:28.245Z,10.01
2018-12-03T07:36:27.524Z,10.01
2018-12-03T07:37:27.551Z,10.14
2018-12-03T07:38:27.602Z,9.99
2018-12-03T07:39:27.647Z,10.10
2018-12-03T07:40:27.712Z,10.17
2018-12-03T07:41:27.748Z,10.12
2018-12-03T07:42:27.783Z,10.19
2018-12-03T07:43:27.856Z,10.18
2018-12-03T07:44:27.872Z,10.07
2018-12-03T07:45:27.950Z,10.15
2018-12-03T07:46:28.025Z,10.14
2018-12-03T07:47:28.022Z,10.17
2018-12-03T07:48:28.059Z,10.17
2018-12-03T07:49:28.134Z,10.17
2018-12-03T07:50:28.151Z,10.24
2018-12-03T07:51:28.194Z,10.15
2018-12-03T07:52:28.242Z,10.18
2018-12-03T07:53:28.288Z,10.17
2018-12-03T07:54:28.365Z,10.18
2018-12-03T07:55:28.378Z,10.14
2018-12-03T07:56:28.427Z,10.10
2018-12-03T07:57:28.475Z,10.15
2018-12-03T07:58:28.515Z,10.14
2018-12-03T07:59:28.598Z,10.25
2018-12-03T08:00:28.708Z,10.22
2018-12-03T08:01:28.675Z,10.15
2018-12-03T08:02:28.699Z,10.24
2018-12-03T08:03:28.748Z,10.28
2018-12-03T08:04:28.815Z,10.28
2018-12-03T08:05:28.853Z,10.22
2018-12-03T08:06:28.903Z,10.22
2018-12-03T08:07:28.935Z,10.32
2018-12-03T08:08:28.974Z,10.25
2018-12-03T08:09:29.019Z,10.25
2018-12-03T08:10:29.073Z,10.22
2018-12-03T08:11:29.132Z,10.32
2018-12-03T08:12:29.158Z,10.36
2018-12-03T08:13:29.215Z,10.36
2018-12-03T08:14:29.251Z,10.40
2018-12-03T08:15:29.297Z,10.42
2018-12-03T08:16:29.365Z,10.42
2018-12-03T08:17:29.397Z,10.52
2018-12-03T08:18:29.435Z,10.52
2018-12-03T08:19:29.491Z,10.53
2018-12-03T08:20:29.527Z,10.55
2018-12-03T08:21:29.600Z,10.63
2018-12-03T08:22:29.626Z,10.59
2018-12-03T08:23:29.668Z,10.60
2018-12-03T08:24:29.712Z,10.55
2018-12-03T08:25:29.759Z,10.74
2018-12-03T08:26:30.449Z,10.62
2018-12-03T08:27:29.871Z,10.59
2018-12-03T08:28:29.896Z,10.56
2018-12-03T08:29:29.948Z,10.60
2018-12-03T08:30:29.988Z,10.56
2018-12-03T08:31:30.034Z,10.68
2018-12-03T08:32:30.116Z,10.63
2018-12-03T08:33:30.136Z,10.63
2018-12-03T08:34:30.176Z,10.63
2018-12-03T08:35:30.220Z,10.62
2018-12-03T08:36:30.272Z,10.65
2018-12-03T08:37:30.395Z,10.77
2018-12-03T08:38:30.392Z,10.74
2018-12-03T08:39:30.421Z,10.76
2018-12-03T08:40:30.450Z,10.83
2018-12-03T08:41:30.506Z,10.78
2018-12-03T08:42:30.550Z,10.94
2018-12-03T08:43:30.606Z,10.92
2018-12-03T08:44:30.641Z,10.99
2018-12-03T08:45:30.693Z,11.16
2018-12-03T08:46:30.741Z,11.11
2018-12-03T08:47:30.782Z,11.19
2018-12-03T08:48:30.859Z,11.20
2018-12-03T08:49:30.868Z,11.17
2018-12-03T08:50:30.913Z,11.11
2018-12-03T08:51:30.981Z,11.07
2018-12-03T08:52:31.006Z,11.10
2018-12-03T08:53:31.070Z,11.06
2018-12-03T08:54:31.117Z,11.07
2018-12-03T08:55:31.152Z,11.03
2018-12-03T08:56:31.187Z,11.11
2018-12-03T08:57:31.241Z,11.03
2018-12-03T08:58:31.283Z,11.09
2018-12-03T08:59:31.350Z,11.02
2018-12-03T09:00:31.395Z,11.09
2018-12-03T09:01:31.424Z,11.21
2018-12-03T09:02:31.470Z,11.19
2018-12-03T09:03:31.513Z,11.24
2018-12-03T09:04:31.559Z,11.21
2018-12-03T09:05:31.633Z,11.29
2018-12-03T09:06:31.667Z,11.39
2018-12-03T09:07:31.704Z,11.34
2018-12-03T09:08:31.753Z,11.32
2018-12-03T09:09:31.793Z,11.34
2018-12-03T09:10:31.858Z,11.36
2018-12-03T09:11:31.908Z,11.53
2018-12-03T09:12:31.933Z,11.53
2018-12-03T09:13:31.976Z,11.47
2018-12-03T09:14:32.023Z,11.44
2018-12-03T09:15:32.076Z,11.47
2018-12-03T09:16:32.143Z,11.44
2018-12-03T09:17:32.170Z,11.38
2018-12-03T09:18:32.210Z,11.50
2018-12-03T09:19:32.263Z,11.54
2018-12-03T09:20:32.304Z,11.52
2018-12-03T09:21:32.391Z,11.49
2018-12-03T09:22:32.397Z,11.54
2018-12-03T09:23:32.445Z,11.61
2018-12-03T09:24:32.492Z,11.50
2018-12-03T09:25:32.542Z,11.54
2018-12-03T09:26:32.607Z,11.47
2018-12-03T09:27:32.635Z,11.50
2018-12-03T09:28:32.771Z,11.54
2018-12-03T09:29:32.727Z,11.54
2018-12-03T09:30:32.774Z,11.56
2018-12-03T09:31:32.842Z,11.62
2018-12-03T09:32:32.885Z,11.57
2018-12-03T09:33:32.942Z,11.57
2018-12-03T09:34:32.961Z,11.53
2018-12-03T09:35:33.149Z,11.52
2018-12-03T09:36:33.045Z,11.46
2018-12-03T09:37:33.100Z,11.56
2018-12-03T09:38:33.160Z,11.53
2018-12-03T09:39:33.197Z,11.49
2018-12-03T09:40:33.236Z,11.47
2018-12-03T09:41:33.314Z,11.32
2018-12-03T09:42:33.328Z,11.32
2018-12-03T09:43:33.374Z,11.16
2018-12-03T09:44:33.421Z,11.29
2018-12-03T09:45:33.475Z,11.32
2018-12-03T09:46:33.537Z,11.39
2018-12-03T09:47:33.568Z,11.38
2018-12-03T09:48:33.663Z,11.35
2018-12-03T09:49:33.659Z,11.32
2018-12-03T09:50:33.703Z,11.41
2018-12-03T09:51:33.782Z,11.34
2018-12-03T09:52:33.805Z,11.36
2018-12-03T09:53:33.845Z,11.47
2018-12-03T09:54:33.889Z,11.41
2018-12-03T09:55:33.940Z,11.52
2018-12-03T09:56:34.001Z,11.54
2018-12-03T09:57:34.031Z,11.53
2018-12-03T09:58:34.093Z,11.50
2018-12-03T09:59:34.136Z,11.56
2018-12-03T10:00:34.202Z,11.52
2018-12-03T10:01:34.221Z,11.52
2018-12-03T10:02:34.264Z,11.49
2018-12-03T10:03:34.330Z,11.53
2018-12-03T10:04:34.363Z,11.56
2018-12-03T10:05:34.408Z,11.50
2018-12-03T10:06:34.449Z,11.50
2018-12-03T10:07:34.500Z,11.57
2018-12-03T10:08:34.566Z,11.64
2018-12-03T10:09:34.592Z,11.59
2018-12-03T10:10:34.637Z,11.67
2018-12-03T10:11:34.700Z,11.65
2018-12-03T10:12:34.733Z,11.78
2018-12-03T10:13:34.798Z,11.72
2018-12-03T10:14:34.828Z,11.72
2018-12-03T10:15:34.872Z,11.74
2018-12-03T10:16:34.919Z,11.62
2018-12-03T10:17:34.966Z,11.67
2018-12-03T10:18:35.058Z,11.52
2018-12-03T10:19:35.124Z,11.56
2018-12-03T10:20:35.108Z,11.54
2018-12-03T10:21:35.153Z,11.62
2018-12-03T10:22:35.230Z,11.50
2018-12-03T10:23:35.254Z,11.50
2018-12-03T10:24:35.324Z,11.50
2018-12-03T10:25:35.346Z,11.52
2018-12-03T10:26:35.409Z,11.50
2018-12-03T10:27:35.444Z,11.46
2018-12-03T10:28:35.494Z,11.47
2018-12-03T10:29:35.567Z,11.50
2018-12-03T10:30:35.575Z,11.56
2018-12-03T10:31:35.639Z,11.49
2018-12-03T10:32:35.671Z,11.54
2018-12-03T10:33:35.718Z,11.61
2018-12-03T10:34:35.792Z,11.54
2018-12-03T10:35:35.839Z,11.49
2018-12-03T10:36:35.860Z,11.49
2018-12-03T10:37:35.906Z,11.53
2018-12-03T10:38:35.952Z,11.49
2018-12-03T10:39:36.004Z,11.54
2018-12-03T10:40:36.082Z,11.56
2018-12-03T10:41:36.113Z,11.53
2018-12-03T10:42:36.159Z,11.57
2018-12-03T10:43:36.186Z,11.52
2018-12-03T10:44:36.253Z,11.53
2018-12-03T10:45:36.279Z,11.56
2018-12-03T10:46:36.353Z,11.61
2018-12-03T10:47:37.271Z,11.54
2018-12-03T10:48:36.419Z,11.56
2018-12-03T10:49:36.477Z,11.70
2018-12-03T10:50:36.525Z,11.72
2018-12-03T10:51:36.588Z,11.77
2018-12-03T10:52:36.609Z,11.72
2018-12-03T10:53:36.663Z,11.78
2018-12-03T10:54:36.720Z,11.74
2018-12-03T10:55:36.759Z,11.77
2018-12-03T10:56:36.834Z,11.72
2018-12-03T10:57:36.853Z,11.77
2018-12-03T10:58:36.903Z,11.80
2018-12-03T10:59:36.940Z,11.72
2018-12-03T11:00:36.986Z,11.74
2018-12-03T11:01:37.057Z,11.82
2018-12-03T11:02:37.082Z,11.72
2018-12-03T11:03:37.149Z,11.70
2018-12-03T11:04:37.177Z,11.68
2018-12-03T11:05:37.227Z,11.71
2018-12-03T11:06:37.296Z,11.80
2018-12-03T11:07:37.386Z,11.74
2018-12-03T11:08:37.368Z,11.78
2018-12-03T11:09:37.409Z,11.72
2018-12-03T11:10:37.461Z,11.86
2018-12-03T11:11:37.506Z,11.89
2018-12-03T11:12:37.587Z,11.93
2018-12-03T11:13:37.612Z,11.86
2018-12-03T11:14:37.662Z,11.89
2018-12-03T11:15:37.702Z,11.85
2018-12-03T11:16:37.763Z,11.86
2018-12-03T11:17:38.305Z,11.85
2018-12-03T11:18:37.867Z,11.86
2018-12-03T11:19:37.913Z,11.78
2018-12-03T11:20:37.928Z,11.82
2018-12-03T11:21:37.977Z,11.72
2018-12-03T11:22:38.027Z,11.71
2018-12-03T11:23:38.104Z,11.61
2018-12-03T11:24:38.223Z,11.57
2018-12-03T11:25:38.166Z,11.59
2018-12-03T11:26:38.226Z,11.62
2018-12-03T11:27:38.264Z,11.56
2018-12-03T11:28:38.336Z,11.70
2018-12-03T11:29:38.384Z,11.67
2018-12-03T11:30:38.407Z,11.68
2018-12-03T11:31:38.450Z,11.72
2018-12-03T11:32:38.505Z,11.65
2018-12-03T11:33:38.566Z,11.72
2018-12-03T11:34:38.607Z,11.67
2018-12-03T11:35:38.647Z,11.70
2018-12-03T11:36:38.687Z,11.70
2018-12-03T11:37:38.742Z,11.68
2018-12-03T11:38:38.786Z,11.75
2018-12-03T11:39:38.878Z,11.78
2018-12-03T11:40:38.873Z,11.85
2018-12-03T11:41:38.983Z,11.78
2018-12-03T11:42:38.977Z,11.75
2018-12-03T11:43:39.017Z,11.75
2018-12-03T11:44:39.080Z,11.78
2018-12-03T11:45:39.130Z,11.78
2018-12-03T11:46:39.160Z,11.71
2018-12-03T11:47:39.204Z,11.72
2018-12-03T11:48:39.264Z,11.68
2018-12-03T11:49:39.302Z,11.70
2018-12-03T11:50:39.376Z,11.65
2018-12-03T11:51:39.394Z,11.71
2018-12-03T11:52:39.447Z,11.72
2018-12-03T11:53:39.490Z,11.74
2018-12-03T11:54:39.673Z,11.71
2018-12-03T11:55:39.582Z,11.67
2018-12-03T11:56:39.669Z,11.70
2018-12-03T11:57:39.677Z,11.72
2018-12-03T11:58:39.727Z,11.71
2018-12-03T11:59:39.771Z,11.57
2018-12-03T12:00:39.821Z,11.54
2018-12-03T12:01:39.978Z,11.59
2018-12-03T12:02:39.912Z,11.64
2018-12-03T12:03:42.735Z,11.61
2018-12-03T12:04:40.007Z,11.75
2018-12-03T12:05:40.051Z,11.82
2018-12-03T12:06:40.201Z,11.86
2018-12-03T12:07:42.506Z,11.87
2018-12-03T12:08:40.207Z,11.86
2018-12-03T12:09:40.251Z,11.83
2018-12-03T12:10:40.296Z,11.89
2018-12-03T12:11:40.345Z,11.87
2018-12-03T12:12:40.435Z,11.87
2018-12-03T12:13:40.439Z,11.86
2018-12-03T12:14:40.489Z,11.80
2018-12-03T12:15:40.611Z,11.87
2018-12-03T12:16:40.575Z,11.83
2018-12-03T12:17:40.642Z,11.90
2018-12-03T12:18:40.701Z,11.89
2018-12-03T12:19:40.729Z,11.93
2018-12-03T12:20:40.767Z,11.87
2018-12-03T12:21:40.823Z,11.94
2018-12-03T12:22:40.918Z,11.97
2018-12-03T12:23:40.934Z,11.96
2018-12-03T12:24:40.956Z,11.97
2018-12-03T12:25:41.013Z,12.06
2018-12-03T12:26:41.045Z,12.09
2018-12-03T12:27:41.126Z,12.09
2018-12-03T12:28:41.183Z,12.08
2018-12-03T12:29:41.192Z,12.05
2018-12-03T12:30:41.236Z,12.08
2018-12-03T12:31:41.282Z,12.12
2018-12-03T12:32:41.337Z,12.04
2018-12-03T12:33:41.431Z,12.01
2018-12-03T12:34:41.431Z,12.08
2018-12-03T12:35:41.473Z,12.01
2018-12-03T12:36:41.521Z,11.99
2018-12-03T12:37:41.567Z,11.93
2018-12-03T12:38:41.728Z,12.08
2018-12-03T12:39:41.683Z,11.94
2018-12-03T12:40:41.705Z,11.90
2018-12-03T12:41:41.758Z,11.93
2018-12-03T12:42:41.811Z,11.97
2018-12-03T12:43:41.870Z,12.04
2018-12-03T12:44:41.898Z,12.12
2018-12-03T12:45:41.943Z,12.06
2018-12-03T12:46:41.998Z,12.04
2018-12-03T12:47:42.040Z,11.97
2018-12-03T12:48:42.106Z,12.02
2018-12-03T12:49:42.159Z,12.05
2018-12-03T12:50:42.187Z,12.12
2018-12-03T12:51:42.238Z,12.13
2018-12-03T12:52:42.343Z,12.15
2018-12-03T12:53:42.327Z,12.19
2018-12-03T12:54:42.391Z,12.15
2018-12-03T12:55:42.447Z,12.19
2018-12-03T12:56:42.467Z,12.24
2018-12-03T12:57:42.522Z,12.23
2018-12-03T12:58:42.570Z,12.19
2018-12-03T12:59:42.666Z,12.24
2018-12-03T13:00:42.685Z,12.21
2018-12-03T13:01:42.701Z,12.26
2018-12-03T13:02:42.760Z,12.23
2018-12-03T13:03:42.801Z,12.21
2018-12-03T13:04:42.853Z,12.29
2018-12-03T13:05:42.925Z,12.29